WetterOnline ( https://www.wetteronline.de )

Wetter aktuell Quedlinburg

Aktuelles Wetter: Harzgerode (405m)

6-stündlich | Neueste Meldungen
Ortszeit Temperatur Wetter
Mi, 27.01. 7:00 -1.5° C wolkig
Mi, 27.01. 1:00 -4.1° C bedeckt
Di, 26.01. 19:00 -2.7° C leicht bewölkt
Di, 26.01. 13:00 -0.7° C Schneegriesel
Di, 26.01. 7:00 -2.3° C Schneefall
Di, 26.01. 1:00 -4.5° C bedeckt
Mo, 25.01. 19:00 -2.8° C wolkig
Mo, 25.01. 13:00 1.0° C wolkig
Ortszeit Temperatur Wetter
Mi, 27.01. 12:00 -0.3° C bedeckt
Mi, 27.01. 11:50 -0.3° C bedeckt
Mi, 27.01. 11:40 -0.5° C bedeckt
Mi, 27.01. 11:30 -0.5° C bedeckt
Mi, 27.01. 11:20 -0.5° C bedeckt
Mi, 27.01. 11:10 -0.6° C wolkig
Mi, 27.01. 11:00 -0.7° C bedeckt
Mi, 27.01. 10:30 -1.1° C -
Mi, 27.01. 10:00 -1.2° C bewölkt
Mi, 27.01. 9:30 -1.5° C wolkig
Mi, 27.01. 9:00 -1.6° C bewölkt
Ortszeit Relative Feuchte Sichtweite
Mi, 27.01. 7:00 94% 9 km
Mi, 27.01. 1:00 96% 11 km
Di, 26.01. 19:00 87% 30 km
Di, 26.01. 13:00 96% 12 km
Di, 26.01. 7:00 95% 1.2 km
Di, 26.01. 1:00 93% 10 km
Mo, 25.01. 19:00 94% 22 km
Mo, 25.01. 13:00 67% 35 km
Ortszeit Relative Feuchte Sichtweite
Mi, 27.01. 12:00 78% 40 km
Mi, 27.01. 11:50 78% -
Mi, 27.01. 11:40 79% -
Mi, 27.01. 11:30 79% 30 km
Mi, 27.01. 11:20 79% -
Mi, 27.01. 11:10 80% -
Mi, 27.01. 11:00 81% 24 km
Mi, 27.01. 10:30 84% 27 km
Mi, 27.01. 10:00 85% 25 km
Mi, 27.01. 9:30 87% 24 km
Mi, 27.01. 9:00 89% 15 km
Ortszeit Niederschlagsmenge Niederschlagsart
Mi, 27.01. 7:00 0.1 l/m2 in 12 Std. Schnee
Mi, 27.01. 1:00 0.0 l/m2 in 6 Std. -
Di, 26.01. 19:00 0.0 l/m2 in 3 Std. Schnee, Regen
Di, 26.01. 13:00 0.0 l/m2 in 6 Std. -
Di, 26.01. 7:00 0.9 l/m2 in 12 Std. Schnee, Sprühregen
Di, 26.01. 1:00 0.0 l/m2 in 6 Std. -
Mo, 25.01. 19:00 0.1 l/m2 in 12 Std. Schnee
Mo, 25.01. 13:00 0.0 l/m2 in 6 Std. -
Ortszeit Niederschlagsmenge Niederschlagsart
Mi, 27.01. 12:00 0.0 l/m2 in 1 Std. -
Mi, 27.01. 11:50 keine Meldung -
Mi, 27.01. 11:40 keine Meldung -
Mi, 27.01. 11:30 0.0 l/m2 in 1 Std. -
Mi, 27.01. 11:20 keine Meldung -
Mi, 27.01. 11:10 keine Meldung -
Mi, 27.01. 11:00 0.0 l/m2 in 1 Std. -
Mi, 27.01. 10:30 0.0 l/m2 in 1 Std. -
Mi, 27.01. 10:00 0.0 l/m2 in 1 Std. -
Mi, 27.01. 9:30 0.0 l/m2 in 1 Std. -
Mi, 27.01. 9:00 0.0 l/m2 in 1 Std. -
Ortszeit Stärke Spitze Richtung
km/h Bft. km/h Grad Sektor
Mi, 27.01. 7:00 14 3 25 240° SW
Mi, 27.01. 1:00 13 3 20 250° W
Di, 26.01. 19:00 9 2 31 260° W
Di, 26.01. 13:00 15 3 - 320° NW
Di, 26.01. 7:00 15 3 30 230° SW
Di, 26.01. 1:00 13 3 17 230° SW
Mo, 25.01. 19:00 7 2 14 230° SW
Mo, 25.01. 13:00 7 2 11 220° SW
Ortszeit Stärke Spitze Richtung
km/h Bft. km/h Grad Sektor
Mi, 27.01. 12:00 20 4 37 220° SW
Mi, 27.01. 11:50 20 4 - 220° SW
Mi, 27.01. 11:40 24 4 - 220° SW
Mi, 27.01. 11:30 22 4 29 210° SW
Mi, 27.01. 11:20 22 4 - 210° SW
Mi, 27.01. 11:10 18 3 - 210° SW
Mi, 27.01. 11:00 17 3 28 210° SW
Mi, 27.01. 10:30 - - 28 - -
Mi, 27.01. 10:00 18 3 29 220° SW
Mi, 27.01. 9:30 20 4 30 230° SW
Mi, 27.01. 9:00 15 3 26 230° SW
Ortszeit Untergrenze Bedeckung Gattung
total tief tief mittel hoch
Mi, 27.01. 7:00 210 m 5/8 5/8 - - -
Mi, 27.01. 1:00 6600 m 8/8 8/8 - - -
Di, 26.01. 19:00 690 m 2/8 2/8 - - -
Di, 26.01. 13:00 - - - - - -
Di, 26.01. 7:00 180 m 8/8 8/8 - - -
Di, 26.01. 1:00 3300 m 8/8 8/8 - - -
Mo, 25.01. 19:00 2700 m 7/8 2/8 - - -
Mo, 25.01. 13:00 900 m 8/8 2/8 - - -
Ortszeit Bedeckungsgrad in Achtel und Wolkenuntergrenze
Mi, 27.01. 12:00 8(2700m) 8(3300m)
Mi, 27.01. 11:50 8(2700m) 8(3300m)
Mi, 27.01. 11:40 8(3000m)
Mi, 27.01. 11:30 8(3000m) 8(3300m)
Mi, 27.01. 11:20 8(3000m)
Mi, 27.01. 11:10 2(2700m) 8(3300m)
Mi, 27.01. 11:00 8(3300m)
Mi, 27.01. 10:30 -
Mi, 27.01. 10:00 7(1800m) 8(3300m)
Mi, 27.01. 9:30 2(1800m) 7(3000m) 8(3600m)
Mi, 27.01. 9:00 7(2700m) 8(3600m)
Ortszeit Luftdruck NN (hPa) Tendenz (hPa in 3 Std.)
Mi, 27.01. 7:00 1015 - 1,2
Mi, 27.01. 1:00 1018 - 0,1
Di, 26.01. 19:00 1017 + 1,7
Di, 26.01. 13:00 1014 + 2,6
Di, 26.01. 7:00 1010 - 0,5
Di, 26.01. 1:00 1011 + 0,7
Mo, 25.01. 19:00 1008 + 2,0
Mo, 25.01. 13:00 1004 + 1,2
Ortszeit Luftdruck NN (hPa) Tendenz (hPa in 3 Std.)
Mi, 27.01. 12:00 1014 - 1,1
Mi, 27.01. 11:50 1014 keine Meldung
Mi, 27.01. 11:40 1014 keine Meldung
Mi, 27.01. 11:30 1014 - 1,2
Mi, 27.01. 11:20 1014 keine Meldung
Mi, 27.01. 11:10 1014 keine Meldung
Mi, 27.01. 11:00 1014 - 0,8
Mi, 27.01. 10:30 1015 - 0,8
Mi, 27.01. 10:00 1015 - 0,7
Mi, 27.01. 9:30 1015 - 0,5
Mi, 27.01. 9:00 1015 - 0,4
Ortszeit Schneehöhe (cm)
Mi, 27.01. 7:00 5
Mi, 27.01. 1:00 5
Di, 26.01. 19:00 5
Di, 26.01. 13:00 6
Di, 26.01. 7:00 4
Di, 26.01. 1:00 2
Mo, 25.01. 19:00 2
Mo, 25.01. 13:00 2
Ortszeit Schneehöhe (cm)
Mi, 27.01. 12:00 5
Mi, 27.01. 11:50 5
Mi, 27.01. 11:40 5
Mi, 27.01. 11:30 5
Mi, 27.01. 11:20 5
Mi, 27.01. 11:10 5
Mi, 27.01. 11:00 5
Mi, 27.01. 10:30 5
Mi, 27.01. 10:00 5
Mi, 27.01. 9:30 5
Mi, 27.01. 9:00 5
Link zu dieser Seite / Seite empfehlen

Das Wetter in ...